Nearby METAR Reports

METAR is the scheduled surface weather observation taken hourly at civil and military airport locations.

METAR is an acronym from the French language and roughly translates as Aviation Routine Weather Report.

 

EGPL - Benbecula Island, United Kingdom
Distance from station: WNW 41mi, 66km
Updated: 24/03/2019 23:20
Mostly cloudy
Mostly cloudy
 Wind from NW
Wind: NW 23 mph , 37 km/h
Temperature: 7°C
Wind Chill: 2°C
Dew Point: 2°C
Humidity: 71%
Barometer: 1029 hPa
Clouds: Mostly cloudy
Visibility: 6 miles , 10 km
Cloud details: Few Clouds 975 m
Mostly cloudy 1250 m
2019/03/24 23:20 EGPL 242320Z AUTO 32020KT 9999 FEW032/// BKN041/// 07/02 Q1029
EGPU - Tiree Island, United Kingdom
Distance from station: SSW 56mi, 90km
Updated: 24/03/2019 15:50
NOT Current
Nearby showers, Mostly cloudy
Nearby showers, Mostly cloudy
 Wind from WNW
Wind: WNW 30 mph , 48 km/h
Temperature: 8°C
Wind Chill: 3°C
Dew Point: 2°C
Humidity: 66%
Barometer: 1025 hPa
Summary: Nearby Showers
Clouds: Mostly cloudy
Visibility: 6 miles , 10 km
Cloud details: Few Clouds 518 m
Mostly cloudy 671 m
2019/03/24 15:50 EGPU 241550Z 30026KT 9999 VCSH FEW017 BKN022 08/02 Q1025
 
EGEO - Oban Airport, United Kingdom
Distance from station: SE 65mi, 105km
Updated: 24/03/2019 15:50
NOT Current
Nearby showers, Partly cloudy
Nearby showers, Partly cloudy
 Wind from WNW
Wind: WNW 26 mph , 43 km/h
Temperature: 7°C
Wind Chill: 2°C
Dew Point: 3°C
Humidity: 76%
Barometer: 1024 hPa
Summary: Nearby Showers
Clouds: Partly cloudy
Visibility: 6 miles , 9 km
Cloud details: Few Clouds 549 m
Partly cloudy 945 m
2019/03/24 15:50 EGEO 241550Z 29023KT 9000 VCSH FEW018 SCT031 07/03 Q1024
EGPO - Stornoway, United Kingdom
Distance from station: 0 66mi, 106km
Updated: 24/03/2019 23:20
Partly cloudy
Partly cloudy
 Wind from NW
Wind: NW 13 mph , 20 km/h
Temperature: 6°C
Wind Chill: 2°C
Dew Point: 1°C
Humidity: 71%
Barometer: 1026 hPa
Clouds: Partly cloudy
Visibility: 6 miles , 10 km
Cloud details: Partly cloudy 975 m
2019/03/24 23:20 EGPO 242320Z AUTO 31011KT 9999 SCT032/// 06/01 Q1026
 
EGPE - Inverness/Dalcro, United Kingdom
Distance from station: ENE 88mi, 141km
Updated: 24/03/2019 23:20
Clear
Clear
 Wind from W
Wind: W 16 mph , 26 km/h
Temperature: 5°C
Wind Chill: 1°C
Dew Point: 3°C
Humidity: 87%
Barometer: 1025 hPa
Clouds: Clear
Visibility: 6 miles , 10 km
2019/03/24 23:20 EGPE 242320Z AUTO 26014KT 9999 NCD 05/03 Q1025
EGQA - Tain Range (saws, United Kingdom
Distance from station: ENE 97mi, 156km
Updated: 22/03/2019 10:50
NOT Current
Nearby showers, Mostly cloudy
Nearby showers, Mostly cloudy
 Wind from SSW
Wind: SSW 31 mph , 50 km/h
Summary: Nearby Showers
Clouds: Mostly cloudy
Visibility: 6 miles , 10 km
Cloud details: Few Clouds 396 m
Partly cloudy 732 m
Mostly cloudy 4877 m
2019/03/22 10:50 EGQA 221050Z 20027KT 9999 VCSH FEW013 SCT024 BKN160 09/// Q1009 WHT
 
EGQK - Kinloss Raf, United Kingdom
Distance from station: ENE 107mi, 171km
Updated: 24/03/2019 22:50
Partly cloudy
Partly cloudy
 Wind from WNW
Wind: WNW 18 mph , 30 km/h
Temperature: 5°C
Wind Chill: 0°C
Dew Point: 3°C
Humidity: 87%
Barometer: 1023 hPa
Clouds: Partly cloudy
Visibility: 6 miles , 10 km
Cloud details: Few Clouds 853 m
Partly cloudy 975 m
2019/03/24 22:50 EGQK 242250Z AUTO 29016KT 9999 FEW028/// SCT032/// 05/03 Q1023 RERA
EGPI - Islay/Port Ellen, United Kingdom
Distance from station: S 110mi, 177km
Updated: 24/03/2019 23:20
Clear
Clear
 Wind from NW
Wind: NW 21 mph , 33 km/h
Temperature: 7°C
Wind Chill: 3°C
Dew Point: 2°C
Humidity: 71%
Barometer: 1029 hPa
Clouds: Clear
Visibility: 6 miles , 10 km
2019/03/24 23:20 EGPI 242320Z AUTO 32018KT 9999 NCD 07/02 Q1029
 
EGQS - Lossiemouth Raf, United Kingdom
Distance from station: ENE 117mi, 188km
Updated: 24/03/2019 22:50
Partly cloudy
Partly cloudy
 Wind from W
Wind: W 21 mph , 33 km/h
Temperature: 6°C
Wind Chill: 1°C
Dew Point: 4°C
Humidity: 87%
Barometer: 1022 hPa
Clouds: Partly cloudy
Visibility: 6 miles , 10 km
Cloud details: Few Clouds 732 m
Partly cloudy 1158 m
2019/03/24 22:50 EGQS 242250Z 28018KT 9999 FEW024 SCT038 06/04 Q1022 BLU
EGPF - Glasgow Airport, United Kingdom
Distance from station: SE 121mi, 195km
Updated: 24/03/2019 23:20
Few Clouds
Few Clouds
 Wind from W
Wind: W 18 mph , 30 km/h
Temperature: 6°C
Wind Chill: 2°C
Dew Point: 1°C
Humidity: 71%
Barometer: 1027 hPa
Clouds: Few Clouds
Visibility: 6 miles , 10 km
Cloud details: Few Clouds 1250 m
2019/03/24 23:20 EGPF 242320Z AUTO 28016KT 9999 FEW041 06/01 Q1027
 
EGEC - Campbeltown, United Kingdom
Distance from station: SSE 129mi, 207km
Updated: 24/03/2019 23:20
Few Clouds
Few Clouds
 Wind from NW
Wind: NW 21 mph , 33 km/h
Temperature: 7°C
Wind Chill: 3°C
Dew Point: 3°C
Humidity: 76%
Barometer: 1029 hPa
Clouds: Few Clouds
Visibility: 6 miles , 10 km
Cloud details: Few Clouds 1128 m
2019/03/24 23:20 EGEC 242320Z 31018KT 9999 FEW037 07/03 Q1029
EGPN - Dundee/Riverside, United Kingdom
Distance from station: ESE 137mi, 221km
Updated: 24/03/2019 20:20
NOT Current
Few Clouds
Few Clouds
 Wind from WNW
Wind: WNW 22 mph , 35 km/h, Gust: 36 mph , 57 km/h
Temperature: 6°C
Wind Chill: 1°C
Dew Point: 0°C
Humidity: 66%
Barometer: 1021 hPa
Clouds: Few Clouds
Visibility: 6 miles , 10 km
Cloud details: Few Clouds 1158 m
2019/03/24 20:20 EGPN 242020Z 30019G31KT 9999 FEW038 06/00 Q1021
 
EGPK - Prestwick(Civ/Na, United Kingdom
Distance from station: SSE 139mi, 224km
Updated: 24/03/2019 23:20
Partly cloudy
Partly cloudy
 Wind from NW
Wind: NW 20 mph , 31 km/h
Temperature: 6°C
Wind Chill: 1°C
Dew Point: 2°C
Humidity: 76%
Barometer: 1028 hPa
Clouds: Partly cloudy
Visibility: 6 miles , 10 km
Cloud details: Few Clouds 427 m
Partly cloudy 975 m
2019/03/24 23:20 EGPK 242320Z 31017KT 9999 FEW014 SCT032 06/02 Q1028
EGQL - Leuchars Raf, United Kingdom
Distance from station: ESE 145mi, 233km
Updated: 24/03/2019 22:50
Clear
Clear
 Wind from WNW
Wind: WNW 18 mph , 30 km/h
Temperature: 6°C
Wind Chill: 2°C
Dew Point: -1°C
Humidity: 61%
Barometer: 1023 hPa
Summary: Clear
Visibility: greater than 7 miles , 10 km
2019/03/24 22:50 EGQL 242250Z 29016KT CAVOK 06/M01 Q1023 BLU
 
EGPH - Edinburgh Airpor, United Kingdom
Distance from station: SE 145mi, 234km
Updated: 24/03/2019 23:20
Clear
Clear
 Wind from WSW
Wind: WSW 8 mph , 13 km/h
Temperature: 2°C
Wind Chill: -1°C
Dew Point: -2°C
Humidity: 75%
Barometer: 1025 hPa
Summary: Clear
Visibility: greater than 7 miles , 10 km
2019/03/24 23:20 EGPH 242320Z 24007KT CAVOK 02/M02 Q1025
EGPC - Wick, United Kingdom
Distance from station: NE 146mi, 234km
Updated: 24/03/2019 23:20
Clear
Clear
 Wind from NW
Wind: NW 26 mph , 43 km/h
Temperature: 5°C
Wind Chill: -1°C
Dew Point: 3°C
Humidity: 87%
Barometer: 1020 hPa
Clouds: Clear
Visibility: 6 miles , 10 km
2019/03/24 23:20 EGPC 242320Z AUTO 32023KT 9999 NCD 05/03 Q1020

-

free counters
QR Code Twitter Scottish Weather Network UK Weather Network
Argyll House B & B

Argyll House B & B is situated in North West Skye and is the perfect base to see all that the Isle of Skye has to offer.
Bookings been taken for 2019.